Weather at Addison Airport

Public forecast

Using degrees Fahrenheit for public forecast. Weather courtesy of forecast.io.

Current aviation weather report (METAR) for Addison Airport

Retrieved 2021/01/16 22:47 UTC (30 minutes ago):

KADS 162247Z 32006KT 13SM SCT080 BKN250 12/M11 A3004

Closest aviation forecast (TAF) to Addison Airport

Closest forecast is Dallas Love Field, 7.3 nm (13.6 km) S. Retrieved 2021/01/16 18:42 UTC (5 hours ago):

TAF KDAL 161739Z 1618/1718 29006KT P6SM FEW250 FM170000 21003KT P6SM BKN150 FM171100 29005KT P6SM FEW250